Latest Weather Observations for Port Fairy

IDV60801

Issued at 10:31 pm EDT Monday 22 December 2014 (issued every 30 minutes, with the page automatically refreshed every 10 minutes)

About weather observations | Map of weather stations | Latest weather observations for VIC | Other Formats
Station Details ID: 090175 Name: PORT FAIRY AWS Lat: -38.39 Lon: 142.23 Height: 10.0 m
Data from the previous 72 hours. | See also: Recent months at Port Fairy
Date/Time
EDT
Temp
°C
App
Temp
°C
Dew
Point
Rel
Hum
%
Delta-T
°C
Wind Press
QNH
hPa
Press
MSL
hPa
Rain
since 9 am
mm
Dir
 
Spd
km/h
Gust
km/h
Spd
kts
Gust
kts
22/10:30pm 17.3 18.1 15.8 91 0.9 S 6 7 3 4 1007.3 1007.3 0.0
22/10:00pm 17.5 18.2 16.0 91 0.9 SSW 7 11 4 6 1007.5 1007.5 0.0
22/09:30pm 17.6 18.8 15.8 89 1.1 SW 4 6 2 3 1007.9 1007.9 0.0
22/09:00pm 17.6 18.8 15.8 89 1.1 W 4 6 2 3 1007.8 1007.8 0.0
22/08:30pm 17.7 18.3 15.9 89 1.1 ESE 7 17 4 9 1007.6 1007.6 0.0
22/08:00pm 17.8 17.6 15.8 88 1.2 SE 11 17 6 9 1007.2 1007.2 0.0
22/07:30pm 17.9 17.7 15.7 87 1.3 S 11 13 6 7 1006.9 1006.9 0.0
22/07:00pm 18.3 18.9 15.7 85 1.5 S 7 11 4 6 1006.7 1006.7 0.0
22/06:30pm 18.5 17.9 15.6 83 1.7 ESE 13 20 7 11 1005.9 1005.9 0.0
22/06:00pm 18.9 18.3 15.6 81 2.0 ESE 13 22 7 12 1006.3 1006.3 0.0
22/05:30pm 19.2 17.9 15.9 81 2.0 ESE 17 26 9 14 1005.9 1005.9 0.0
22/05:00pm 19.6 17.8 16.1 80 2.1 SE 20 28 11 15 1006.0 1006.0 0.0
22/04:30pm 19.5 17.2 15.8 79 2.2 SE 22 32 12 17 1006.7 1006.7 0.0
22/04:00pm 19.4 17.7 15.7 79 2.2 SE 19 24 10 13 1007.6 1007.6 0.0
22/03:30pm 20.8 19.9 15.8 73 3.0 SSE 15 30 8 16 1008.3 1008.3 0.0
22/03:00pm 22.8 23.0 16.8 69 3.7 SSE 11 28 6 15 1008.3 1008.3 0.0
22/02:30pm 23.9 23.8 15.9 61 4.8 E 11 15 6 8 1007.8 1007.8 0.0
22/02:00pm 24.1 24.4 17.1 65 4.3 NE 11 20 6 11 1008.4 1008.4 0.0
22/01:30pm 22.5 21.1 15.6 65 4.1 NE 17 24 9 13 1008.8 1008.8 0.0
22/01:00pm 22.5 22.0 15.8 66 4.0 NNE 13 20 7 11 1009.8 1009.8 0.0
22/12:30pm 21.0 19.3 15.8 72 3.1 NNE 19 32 10 17 1009.8 1009.8 0.0
22/12:00pm 18.2 17.1 15.3 83 1.7 ENE 15 26 8 14 1009.3 1009.3 0.0
22/11:30am 18.3 16.2 14.8 80 2.0 E 19 30 10 16 1009.7 1009.7 0.0
22/11:00am 18.5 16.3 14.8 79 2.2 E 20 32 11 17 1010.3 1010.3 0.0
22/10:30am 18.2 15.0 15.3 83 1.7 E 26 37 14 20 1010.6 1010.6 0.0
22/10:00am 17.0 15.1 15.2 89 1.0 E 19 30 10 16 1011.5 1011.5 0.0
22/09:30am 16.7 13.7 14.9 89 1.0 ESE 24 35 13 19 1011.8 1011.8 0.0
22/09:00am 16.7 13.6 14.5 87 1.3 SE 24 32 13 17 1012.1 1012.1 0.0
22/08:30am 16.3 14.4 14.1 87 1.2 ESE 17 26 9 14 1012.7 1012.7 0.0
22/08:00am 16.1 15.3 13.9 87 1.2 ESE 11 15 6 8 1012.9 1012.9 0.0
22/07:30am 15.8 16.2 13.6 87 1.2 ENE 4 9 2 5 1013.0 1013.0 0.0
22/07:00am 15.8 14.5 13.6 87 1.2 ESE 13 20 7 11 1011.7 1011.7 0.0
22/06:30am 15.8 16.9 13.6 87 1.2 CALM 0 4 0 2 1012.8 1012.8 0.0
22/06:00am 15.9 15.4 13.9 88 1.1 ENE 9 15 5 8 1012.0 1012.0 0.0
22/05:30am 15.9 15.1 14.1 89 1.0 E 11 19 6 10 1011.8 1011.8 0.0
22/05:00am 16.5 14.2 14.7 89 1.0 E 20 30 11 16 1011.5 1011.5 0.0
22/04:30am 16.3 13.4 14.1 87 1.2 ESE 22 32 12 17 1011.6 1011.6 0.0
22/04:00am 16.1 13.7 13.8 86 1.3 ESE 19 28 10 15 1012.1 1012.1 0.0
22/03:30am 15.9 13.4 13.6 86 1.3 ESE 19 24 10 13 1012.6 1012.6 0.0
22/03:00am 15.8 13.1 13.5 86 1.3 ESE 20 28 11 15 1013.0 1013.0 0.0
22/02:30am 15.6 12.8 13.3 86 1.3 SE 20 28 11 15 1013.2 1013.2 0.0
22/02:00am 15.4 12.5 12.9 85 1.4 SE 20 26 11 14 1013.7 1013.7 0.0
22/01:30am 15.6 12.7 12.9 84 1.5 SE 20 24 11 13 1013.7 1013.7 0.0
22/01:00am 15.9 13.2 12.8 82 1.7 SE 19 24 10 13 1014.4 1014.4 0.0
22/12:30am 16.4 14.2 13.3 82 1.7 SE 17 22 9 12 1014.7 1014.7 0.0
22/12:00am 16.4 14.2 13.3 82 1.7 SE 17 24 9 13 1015.0 1015.0 0.0
 
Date/Time
EDT
Temp
°C
App
Temp
°C
Dew
Point
Rel
Hum
%
Delta-T
°C
Wind Press
QNH
hPa
Press
MSL
hPa
Rain
since 9 am
mm
Dir
 
Spd
km/h
Gust
km/h
Spd
kts
Gust
kts
21/11:30pm 16.3 13.8 13.4 83 1.6 SE 19 24 10 13 1014.9 1014.9 0.0
21/11:00pm 16.2 13.6 13.1 82 1.7 SE 19 24 10 13 1014.9 1014.9 0.0
21/10:30pm 16.4 13.7 13.5 83 1.6 SE 20 28 11 15 1015.2 1015.2 0.0
21/10:00pm 16.5 14.0 13.6 83 1.6 SE 19 24 10 13 1015.3 1015.3 0.0
21/09:30pm 16.6 14.0 13.7 83 1.6 SSE 20 26 11 14 1014.9 1014.9 0.0
21/09:00pm 16.7 14.1 13.8 83 1.6 SE 20 28 11 15 1014.6 1014.6 0.0
21/08:30pm 16.7 14.0 13.6 82 1.7 SSE 20 28 11 15 1014.5 1014.5 0.0
21/08:00pm 16.8 14.3 13.5 81 1.9 SSE 19 26 10 14 1014.1 1014.1 0.0
21/07:30pm 17.2 14.3 13.9 81 1.9 SSE 22 30 12 16 1014.0 1014.0 0.0
21/07:00pm 17.2 13.9 13.9 81 1.9 SSE 24 32 13 17 1014.0 1014.0 0.0
21/06:30pm 17.4 14.8 13.9 80 2.0 S 20 26 11 14 1013.6 1013.6 0.0
21/06:00pm 18.1 16.3 14.4 79 2.1 S 17 24 9 13 1013.3 1013.3 0.0
21/05:30pm 18.9 17.7 15.0 78 2.3 S 15 22 8 12 1013.3 1013.3 0.0
21/05:00pm 19.8 19.0 15.2 75 2.7 S 13 19 7 10 1013.2 1013.2 0.0
21/04:30pm 19.6 18.9 15.3 76 2.5 S 13 19 7 10 1013.3 1013.3 0.0
21/04:00pm 18.7 17.3 14.6 77 2.4 SSE 15 19 8 10 1013.4 1013.4 0.0
21/03:30pm 19.5 18.4 15.2 76 2.5 SSE 15 19 8 10 1013.6 1013.6 0.0
21/03:00pm 19.9 18.3 15.1 74 2.8 SSE 17 22 9 12 1013.5 1013.5 0.0
21/02:30pm 19.9 18.3 14.9 73 2.9 SSE 17 22 9 12 1013.8 1013.8 0.0
21/02:00pm 20.0 17.9 14.8 72 3.0 SSE 19 24 10 13 1014.0 1014.0 0.0
21/01:30pm 19.2 16.5 14.5 74 2.7 S 22 32 12 17 1014.2 1014.2 0.0
21/01:00pm 19.2 15.9 14.9 76 2.5 S 26 32 14 17 1014.3 1014.3 0.0
21/12:30pm 19.4 16.3 14.4 73 2.9 S 24 33 13 18 1014.3 1014.3 0.0
21/12:00pm 20.1 19.5 14.7 71 3.2 SSW 11 15 6 8 1014.3 1014.3 0.0
21/11:30am 19.9 18.9 14.7 72 3.0 SSW 13 17 7 9 1014.1 1014.1 0.0
21/11:00am 19.6 18.9 14.4 72 3.0 S 11 15 6 8 1013.7 1013.7 0.0
21/10:30am 19.8 19.4 14.0 69 3.3 SSE 9 11 5 6 1013.8 1013.8 0.0
21/10:00am 19.4 19.0 14.0 71 3.1 SE 9 13 5 7 1013.6 1013.6 0.0
21/09:30am 18.9 19.0 14.0 73 2.8 E 6 9 3 5 1013.7 1013.7 0.0
21/09:00am 18.0 18.6 14.3 79 2.1 ENE 4 7 2 4 1013.8 1013.8 0.0
21/08:30am 15.4 14.9 12.5 83 1.6 NE 7 13 4 7 1013.7 1013.7 0.0
21/08:00am 14.3 13.2 12.0 86 1.2 NE 9 13 5 7 1013.8 1013.8 0.0
21/07:30am 13.9 12.0 11.9 88 1.1 NE 13 17 7 9 1013.4 1013.4 0.0
21/07:00am 13.4 11.5 11.8 90 0.9 ENE 13 20 7 11 1013.4 1013.4 0.0
21/06:30am 13.1 10.7 11.5 90 0.8 ENE 15 22 8 12 1013.2 1013.2 0.0
21/06:00am 13.1 11.5 11.5 90 0.8 ENE 11 20 6 11 1013.1 1013.1 0.0
21/05:30am 12.9 11.6 11.1 89 0.9 ENE 9 17 5 9 1013.4 1013.4 0.0
21/05:00am 12.5 11.6 10.6 88 1.0 NE 6 9 3 5 1013.9 1013.9 0.0
21/04:30am 12.9 12.1 11.0 88 1.0 NE 6 9 3 5 1014.1 1014.1 0.0
21/04:00am 13.1 12.2 11.2 88 1.0 NE 7 13 4 7 1013.8 1013.8 0.0
21/03:30am 13.6 12.4 11.7 88 1.0 NE 9 15 5 8 1013.8 1013.8 0.0
21/03:00am 13.9 12.8 11.8 87 1.1 ENE 9 15 5 8 1013.7 1013.7 0.0
21/02:30am 13.9 12.4 11.8 87 1.1 ENE 11 17 6 9 1014.0 1014.0 0.0
21/02:00am 14.4 13.3 11.9 85 1.3 NE 9 13 5 7 1014.5 1014.5 0.0
21/01:30am 14.4 13.2 11.7 84 1.4 ENE 9 13 5 7 1015.2 1015.2 0.0
21/01:00am 14.4 13.2 11.7 84 1.4 E 9 13 5 7 1015.9 1015.9 0.0
21/12:30am 14.6 13.4 11.7 83 1.6 ENE 9 15 5 8 1016.3 1016.3 0.0
21/12:00am 14.8 13.7 11.9 83 1.6 E 9 15 5 8 1016.7 1016.7 0.0
 
Date/Time
EDT
Temp
°C
App
Temp
°C
Dew
Point
Rel
Hum
%
Delta-T
°C
Wind Press
QNH
hPa
Press
MSL
hPa
Rain
since 9 am
mm
Dir
 
Spd
km/h
Gust
km/h
Spd
kts
Gust
kts
20/11:30pm 14.6 13.8 11.6 82 1.6 E 7 13 4 7 1017.0 1017.0 0.0
20/11:00pm 14.6 13.8 11.6 82 1.6 ESE 7 11 4 6 1017.3 1017.3 0.0
20/10:30pm 14.4 13.4 11.0 80 1.8 ESE 7 11 4 6 1017.3 1017.3 0.0
20/10:00pm 14.7 13.3 10.9 78 2.0 SE 9 13 5 7 1017.4 1017.4 0.0
20/09:30pm 14.9 13.8 10.7 76 2.2 SE 7 11 4 6 1017.3 1017.3 0.0
20/09:00pm 15.4 14.0 10.8 74 2.4 SSE 9 13 5 7 1017.4 1017.4 0.0
20/08:30pm 16.1 14.3 10.8 71 2.8 SSE 11 13 6 7 1017.4 1017.4 0.0
20/08:00pm 16.8 15.0 10.9 68 3.2 SSE 11 13 6 7 1017.3 1017.3 0.0
20/07:30pm 17.1 15.3 10.9 67 3.3 S 11 15 6 8 1017.2 1017.2 0.0
20/07:00pm 17.8 15.6 10.9 64 3.7 S 13 17 7 9 1017.0 1017.0 0.0
20/06:30pm 18.0 15.9 11.1 64 3.7 S 13 17 7 9 1017.2 1017.2 0.0
20/06:00pm 18.3 16.0 10.4 60 4.2 SSW 13 19 7 10 1017.3 1017.3 0.0
20/05:30pm 18.6 16.4 10.7 60 4.3 SSW 13 19 7 10 1017.4 1017.4 0.0
20/05:00pm 18.9 16.6 11.9 64 3.9 SSW 15 20 8 11 1017.6 1017.6 0.0
20/04:30pm 19.7 18.0 12.5 63 4.0 SSW 13 22 7 12 1017.7 1017.7 0.0
20/04:00pm 19.6 17.4 12.1 62 4.2 SSW 15 20 8 11 1018.1 1018.1 0.0
20/03:30pm 18.9 15.8 11.7 63 4.0 SSW 19 24 10 13 1018.5 1018.5 0.0
20/03:00pm 19.1 16.0 11.7 62 4.1 SW 19 24 10 13 1018.7 1018.7 0.0
20/02:30pm 19.3 16.2 12.1 63 4.0 SW 20 26 11 14 1019.1 1019.1 0.0
20/02:00pm 19.8 16.5 11.6 59 4.5 SW 20 26 11 14 1019.1 1019.1 0.0
20/01:30pm 20.3 17.0 11.5 57 4.9 SW 20 28 11 15 1019.3 1019.3 0.0
20/01:00pm 20.2 16.9 11.7 58 4.7 SW 20 28 11 15 1019.5 1019.5 0.0
20/12:30pm 19.8 16.4 11.3 58 4.7 SW 20 28 11 15 1019.5 1019.5 0.0
20/12:00pm 18.8 15.9 11.1 61 4.2 WSW 17 22 9 12 1019.7 1019.7 0.0
20/11:30am 18.4 15.1 11.0 62 4.0 WSW 19 24 10 13 1019.7 1019.7 0.0
20/11:00am 18.1 15.2 11.0 63 3.8 WSW 17 24 9 13 1019.7 1019.7 0.0
20/10:30am 18.0 15.1 11.1 64 3.7 WSW 17 24 9 13 1019.7 1019.7 0.0
20/10:00am 18.2 15.1 11.5 65 3.7 WSW 19 26 10 14 1019.7 1019.7 0.0
20/09:30am 17.0 14.4 10.6 66 3.4 WSW 15 22 8 12 1019.6 1019.6 0.0
20/09:00am 16.3 14.7 11.5 73 2.6 W 11 22 6 12 1019.3 1019.3 0.0
20/08:30am 15.6 15.0 11.6 77 2.2 WNW 6 11 3 6 1018.9 1018.9 0.0
20/08:00am 14.6 13.8 11.2 80 1.8 NW 6 7 3 4 1018.7 1018.7 0.0
20/07:30am 13.8 12.9 10.8 82 1.6 NW 6 11 3 6 1018.3 1018.3 0.0
20/07:00am 12.9 11.6 10.1 83 1.4 NNW 7 11 4 6 1018.2 1018.2 0.0
20/06:30am 12.4 11.1 9.8 84 1.3 NW 7 11 4 6 1017.9 1017.9 0.0
20/06:00am 12.1 10.7 9.5 84 1.3 NNW 7 9 4 5 1017.9 1017.9 0.0
20/05:30am 11.6 10.1 9.0 84 1.3 NNW 7 13 4 7 1017.8 1017.8 0.0
20/05:00am 11.0 8.9 8.4 84 1.3 NNW 9 13 5 7 1017.7 1017.7 0.0
20/04:30am 10.5 8.6 7.7 83 1.3 NNW 7 11 4 6 1017.7 1017.7 0.0
20/04:00am 10.5 8.2 7.6 82 1.4 NW 9 13 5 7 1017.8 1017.8 0.0
20/03:30am 10.9 8.6 7.6 80 1.6 NW 9 13 5 7 1017.9 1017.9 0.0
20/03:00am 11.4 9.2 7.9 79 1.7 NNW 9 15 5 8 1018.3 1018.3 0.0
20/02:30am 11.0 9.1 7.5 79 1.7 NNW 7 11 4 6 1018.5 1018.5 0.0
20/02:00am 11.7 9.9 7.8 77 1.9 NNW 7 11 4 6 1018.7 1018.7 0.0
20/01:30am 12.2 10.5 8.3 77 1.9 NNW 7 11 4 6 1019.0 1019.0 0.0
20/01:00am 12.2 10.5 8.3 77 1.9 NNW 7 9 4 5 1019.3 1019.3 0.0
20/12:30am 12.4 10.8 8.1 75 2.1 NNW 6 9 3 5 1019.6 1019.6 0.0
20/12:00am 12.9 11.4 8.4 74 2.2 NNW 6 7 3 4 1019.7 1019.7 0.0
 
Date/Time
EDT
Temp
°C
App
Temp
°C
Dew
Point
Rel
Hum
%
Delta-T
°C
Wind Press
QNH
hPa
Press
MSL
hPa
Rain
since 9 am
mm
Dir
 
Spd
km/h
Gust
km/h
Spd
kts
Gust
kts
19/11:30pm 13.4 12.0 8.7 73 2.4 WNW 6 7 3 4 1019.9 1019.9 0.0
19/11:00pm 14.2 12.3 9.0 71 2.6 W 9 13 5 7 1020.0 1020.0 0.0

Other Formats:

Comma delimited format used in spreadsheet applications
http://www.bom.gov.au/fwo/IDV60801/IDV60801.94830.axf

JavaScript Object Notation format (JSON) in row-major order
http://www.bom.gov.au/fwo/IDV60801/IDV60801.94830.json